createdAt,value
2018-10-18T09:28:33.099Z,96.10
2018-10-18T09:31:06.619Z,95.30
2018-10-18T09:33:39.943Z,94.90
2018-10-18T09:36:13.392Z,94.20
2018-10-18T09:38:46.799Z,94.10
2018-10-18T09:41:20.373Z,94.50
2018-10-18T09:44:06.205Z,94.60
2018-10-18T09:46:39.647Z,93.80
2018-10-18T09:49:13.124Z,94.00
2018-10-18T09:51:46.561Z,94.50
2018-10-18T09:54:19.986Z,93.60
2018-10-18T09:56:53.423Z,93.60
2018-10-18T09:59:26.986Z,93.90
2018-10-18T10:02:05.709Z,94.00
2018-10-18T10:04:39.125Z,93.70
2018-10-18T10:07:12.796Z,94.00
2018-10-18T10:09:46.190Z,93.80
2018-10-18T10:12:19.691Z,93.40
2018-10-18T10:14:53.143Z,93.60
2018-10-18T10:17:26.567Z,94.50
2018-10-18T10:20:00.020Z,93.70
2018-10-18T10:22:33.436Z,93.80
2018-10-18T10:25:07.059Z,93.20
2018-10-18T10:27:40.476Z,93.50
2018-10-18T10:30:13.978Z,93.00
2018-10-18T10:32:47.420Z,93.00
2018-10-18T10:35:20.857Z,92.90
2018-10-18T10:37:54.287Z,92.90
2018-10-18T10:40:27.720Z,92.50
2018-10-18T10:43:01.213Z,92.60
2018-10-18T10:45:34.630Z,92.50
2018-10-18T10:48:08.173Z,92.10
2018-10-18T10:50:41.543Z,92.30
2018-10-18T10:53:14.975Z,92.60
2018-10-18T10:55:48.408Z,92.40
2018-10-18T10:58:21.859Z,92.40
2018-10-18T11:01:14.547Z,92.10
2018-10-18T11:03:48.571Z,92.50
2018-10-18T11:06:22.120Z,92.20
2018-10-18T11:08:55.583Z,92.00
2018-10-18T11:11:29.038Z,91.60
2018-10-18T11:14:02.520Z,91.60
2018-10-18T11:16:35.973Z,91.80
2018-10-18T11:19:09.388Z,90.90
2018-10-18T11:21:42.973Z,91.30
2018-10-18T11:24:16.383Z,90.40
2018-10-18T11:26:49.847Z,90.90
2018-10-18T11:29:23.427Z,90.90
2018-10-18T11:31:56.918Z,90.80
2018-10-18T11:34:30.557Z,91.00
2018-10-18T11:37:03.960Z,90.80
2018-10-18T11:39:37.392Z,90.70
2018-10-18T11:42:10.897Z,90.50
2018-10-18T11:44:44.222Z,90.70
2018-10-18T11:47:17.647Z,90.60
2018-10-18T11:49:51.075Z,90.40
2018-10-18T11:52:24.504Z,90.70
2018-10-18T11:54:57.899Z,90.40
2018-10-18T11:57:33.402Z,90.40
2018-10-18T12:00:06.903Z,90.60
2018-10-18T12:02:40.393Z,90.20
2018-10-18T12:05:14.237Z,90.20
2018-10-18T12:07:47.652Z,90.20
2018-10-18T12:10:22.321Z,90.00
2018-10-18T12:12:55.752Z,90.10
2018-10-18T12:15:29.148Z,90.10
2018-10-18T12:18:02.626Z,89.90
2018-10-18T12:20:36.054Z,89.50
2018-10-18T12:23:09.520Z,89.50
2018-10-18T12:25:43.109Z,89.70
2018-10-18T12:28:16.515Z,89.30
2018-10-18T12:30:49.914Z,89.20
2018-10-18T12:33:23.404Z,89.90
2018-10-18T12:35:56.804Z,89.30
2018-10-18T12:38:30.245Z,89.40
2018-10-18T12:41:03.817Z,88.30
2018-10-18T12:43:37.093Z,88.60
2018-10-18T12:46:10.504Z,89.30
2018-10-18T12:48:44.077Z,88.80
2018-10-18T12:51:17.494Z,89.10
2018-10-18T12:53:50.931Z,88.70
2018-10-18T12:56:24.356Z,89.30
2018-10-18T12:58:57.785Z,88.40
2018-10-18T13:01:31.263Z,89.00
2018-10-18T13:04:04.744Z,87.60
2018-10-18T13:06:38.172Z,88.30
2018-10-18T13:09:11.821Z,88.00
2018-10-18T13:11:45.244Z,88.50
2018-10-18T13:14:18.756Z,88.80
2018-10-18T13:16:55.235Z,87.30
2018-10-18T13:19:28.757Z,86.80
2018-10-18T13:22:02.195Z,87.20
2018-10-18T13:24:35.646Z,86.90
2018-10-18T13:27:09.097Z,87.10
2018-10-18T13:29:42.540Z,87.10
2018-10-18T13:32:16.088Z,86.70
2018-10-18T13:34:49.509Z,86.50
2018-10-18T13:37:22.951Z,86.90
2018-10-18T13:39:56.401Z,87.60
2018-10-18T13:42:29.953Z,86.90
2018-10-18T13:45:03.795Z,86.80
2018-10-18T13:47:37.383Z,86.70
2018-10-18T13:50:10.928Z,86.50
2018-10-18T13:52:44.391Z,86.00
2018-10-18T13:55:17.795Z,85.80
2018-10-18T13:57:51.327Z,87.10
2018-10-18T14:00:29.932Z,86.50
2018-10-18T14:03:03.401Z,86.20
2018-10-18T14:05:36.875Z,86.00
2018-10-18T14:08:10.458Z,85.70
2018-10-18T14:10:43.858Z,85.30
2018-10-18T14:13:17.723Z,85.50
2018-10-18T14:15:51.181Z,85.40
2018-10-18T14:18:24.705Z,86.50
2018-10-18T14:20:58.248Z,85.70
2018-10-18T14:23:31.811Z,85.40
2018-10-18T14:26:05.374Z,85.40
2018-10-18T14:28:38.797Z,85.90
2018-10-18T14:31:12.227Z,86.10
2018-10-18T14:33:45.720Z,85.10
2018-10-18T14:36:19.139Z,85.00
2018-10-18T14:38:52.646Z,85.10
2018-10-18T14:41:26.001Z,85.10
2018-10-18T14:43:59.548Z,85.10
2018-10-18T14:46:32.935Z,84.90
2018-10-18T14:49:06.603Z,85.40
2018-10-18T14:51:39.998Z,85.30
2018-10-18T14:54:13.440Z,85.20
2018-10-18T14:56:46.943Z,85.20
2018-10-18T14:59:20.481Z,85.30
2018-10-18T15:01:53.933Z,85.40
2018-10-18T15:04:27.417Z,85.70
2018-10-18T15:07:00.802Z,85.70
2018-10-18T15:09:34.319Z,85.40
2018-10-18T15:12:08.485Z,85.70
2018-10-18T15:14:42.076Z,85.70
2018-10-18T15:17:15.567Z,86.20
2018-10-18T15:19:49.075Z,85.70
2018-10-18T15:22:22.500Z,85.70
2018-10-18T15:24:57.064Z,86.10
2018-10-18T15:27:30.564Z,86.60
2018-10-18T15:30:04.447Z,85.70
2018-10-18T15:32:38.394Z,85.90
2018-10-18T15:35:12.440Z,85.80
2018-10-18T15:37:45.865Z,85.90
2018-10-18T15:40:19.271Z,86.00
2018-10-18T15:42:52.820Z,86.20
2018-10-18T15:45:26.268Z,85.90
2018-10-18T15:47:59.694Z,87.00
2018-10-18T15:50:33.149Z,86.60
2018-10-18T15:53:06.597Z,86.30
2018-10-18T15:55:40.166Z,86.60
2018-10-18T15:58:13.902Z,86.50
2018-10-18T16:00:47.348Z,86.60
2018-10-18T16:03:20.804Z,86.70
2018-10-18T16:05:54.311Z,87.00
2018-10-18T16:08:27.779Z,87.00
2018-10-18T16:11:01.320Z,86.90
2018-10-18T16:13:36.019Z,87.70
2018-10-18T16:16:09.534Z,88.40
2018-10-18T16:18:42.977Z,88.80
2018-10-18T16:21:16.432Z,89.00
2018-10-18T16:23:49.883Z,89.00
2018-10-18T16:26:23.366Z,89.10
2018-10-18T16:28:56.934Z,89.40
2018-10-18T16:31:30.431Z,89.60
2018-10-18T16:34:03.888Z,89.90
2018-10-18T16:36:37.365Z,89.60
2018-10-18T16:39:12.548Z,89.20
2018-10-18T16:41:46.053Z,89.20
2018-10-18T16:44:19.562Z,89.20
2018-10-18T16:46:53.016Z,89.50
2018-10-18T16:49:26.428Z,89.30
2018-10-18T16:51:59.853Z,89.60
2018-10-18T16:54:33.299Z,89.50
2018-10-18T16:57:06.808Z,90.10
2018-10-18T16:59:40.203Z,89.80
2018-10-18T17:02:13.871Z,89.90
2018-10-18T17:04:47.256Z,89.90
2018-10-18T17:07:20.719Z,90.00
2018-10-18T17:09:54.145Z,90.10
2018-10-18T17:12:27.562Z,90.00
2018-10-18T17:15:00.975Z,90.10
2018-10-18T17:17:34.735Z,90.10
2018-10-18T17:20:08.818Z,90.10
2018-10-18T17:22:42.060Z,90.40
2018-10-18T17:25:15.486Z,90.00
2018-10-18T17:27:48.892Z,90.00
2018-10-18T17:30:22.291Z,90.00
2018-10-18T17:32:55.759Z,90.20
2018-10-18T17:35:29.272Z,90.30
2018-10-18T17:38:02.745Z,90.40
2018-10-18T17:40:36.123Z,90.60
2018-10-18T17:43:09.546Z,90.60
2018-10-18T17:45:42.947Z,90.60
2018-10-18T17:48:16.385Z,90.70
2018-10-18T17:50:49.814Z,90.90
2018-10-18T17:53:23.183Z,91.10
2018-10-18T17:55:56.632Z,91.10
2018-10-18T17:58:29.990Z,91.20
2018-10-18T18:01:03.393Z,91.40
2018-10-18T18:03:36.779Z,91.40
2018-10-18T18:06:10.388Z,91.40
2018-10-18T18:08:43.620Z,91.40
2018-10-18T18:11:17.025Z,91.50
2018-10-18T18:13:50.404Z,91.60
2018-10-18T18:16:23.802Z,91.80
2018-10-18T18:18:57.183Z,91.90
2018-10-18T18:21:30.576Z,91.80
2018-10-18T18:24:03.967Z,92.00
2018-10-18T18:26:45.264Z,92.10
2018-10-18T18:29:10.832Z,92.20
2018-10-18T18:31:44.239Z,92.20
2018-10-18T18:34:17.789Z,92.30
2018-10-18T18:36:51.315Z,92.20
2018-10-18T18:39:24.736Z,92.50
2018-10-18T18:41:58.144Z,92.50
2018-10-18T18:44:31.599Z,92.60
2018-10-18T18:47:05.075Z,92.90
2018-10-18T18:49:38.506Z,92.50
2018-10-18T18:52:11.913Z,92.80
2018-10-18T18:54:45.336Z,93.00
2018-10-18T18:57:18.796Z,92.70
2018-10-18T18:59:52.195Z,92.50
2018-10-18T19:02:25.606Z,92.40
2018-10-18T19:04:59.011Z,92.50
2018-10-18T19:07:33.203Z,92.40
2018-10-18T19:10:07.307Z,92.40
2018-10-18T19:12:40.718Z,92.50
2018-10-18T19:15:14.263Z,92.30
2018-10-18T19:17:47.684Z,92.30
2018-10-18T19:20:21.089Z,92.20
2018-10-18T19:22:54.668Z,92.50
2018-10-18T19:25:28.028Z,92.80
2018-10-18T19:28:01.532Z,92.80
2018-10-18T19:30:34.981Z,92.90
2018-10-18T19:33:08.484Z,93.20
2018-10-18T19:35:41.983Z,92.90
2018-10-18T19:38:15.422Z,92.80
2018-10-18T19:40:48.826Z,92.70
2018-10-18T19:43:22.339Z,92.90
2018-10-18T19:45:55.803Z,93.10
2018-10-18T19:48:29.180Z,93.30
2018-10-18T19:51:02.587Z,93.40
2018-10-18T19:53:35.982Z,93.30
2018-10-18T19:56:09.440Z,93.10
2018-10-18T19:58:42.872Z,93.10
2018-10-18T20:01:16.218Z,93.50
2018-10-18T20:03:49.688Z,93.90
2018-10-18T20:06:23.196Z,94.20
2018-10-18T20:08:56.684Z,93.90
2018-10-18T20:11:30.181Z,93.90
2018-10-18T20:14:03.782Z,93.80
2018-10-18T20:16:37.185Z,94.50
2018-10-18T20:19:10.601Z,95.20
2018-10-18T20:21:44.060Z,95.00
2018-10-18T20:24:18.057Z,94.90
2018-10-18T20:26:51.533Z,94.60
2018-10-18T20:29:25.028Z,94.50
2018-10-18T20:31:58.497Z,94.10
2018-10-18T20:34:31.929Z,94.00
2018-10-18T20:37:06.056Z,94.70
2018-10-18T20:39:39.507Z,94.70
2018-10-18T20:42:12.928Z,95.30
2018-10-18T20:44:46.374Z,96.10
2018-10-18T20:47:19.930Z,96.30
2018-10-18T20:49:53.399Z,96.40
2018-10-18T20:52:26.973Z,96.60
2018-10-18T20:55:00.646Z,96.50
2018-10-18T20:57:34.428Z,96.50
2018-10-18T21:00:08.667Z,96.90
2018-10-18T21:02:42.105Z,96.90
2018-10-18T21:05:15.530Z,97.10
2018-10-18T21:07:48.942Z,96.90
2018-10-18T21:10:22.355Z,97.00
2018-10-18T21:12:55.792Z,97.20
2018-10-18T21:15:29.206Z,96.80
2018-10-18T21:18:02.662Z,97.30
2018-10-18T21:20:36.086Z,97.10
2018-10-18T21:23:09.540Z,96.80
2018-10-18T21:25:42.950Z,96.20
2018-10-18T21:28:16.381Z,96.80
2018-10-18T21:30:49.799Z,96.60
2018-10-18T21:33:23.236Z,96.50
2018-10-18T21:35:56.648Z,96.30
2018-10-18T21:38:30.088Z,95.90
2018-10-18T21:41:03.548Z,96.00
2018-10-18T21:43:36.950Z,95.70
2018-10-18T21:46:10.366Z,96.20
2018-10-18T21:48:43.999Z,96.30
2018-10-18T21:51:17.587Z,96.70
2018-10-18T21:53:50.872Z,97.30
2018-10-18T21:56:24.349Z,96.90
2018-10-18T21:58:57.785Z,97.30
2018-10-18T22:01:31.201Z,97.30
2018-10-18T22:04:04.687Z,96.40
2018-10-18T22:06:38.079Z,97.10
2018-10-18T22:09:11.561Z,97.30
2018-10-18T22:11:44.963Z,96.80
2018-10-18T22:14:19.491Z,97.40
2018-10-18T22:16:52.918Z,97.50
2018-10-18T22:19:26.314Z,97.80
2018-10-18T22:21:59.720Z,97.40
2018-10-18T22:24:33.140Z,97.90
2018-10-18T22:27:06.611Z,97.70
2018-10-18T22:29:39.988Z,98.00
2018-10-18T22:32:13.396Z,98.50
2018-10-18T22:34:46.822Z,98.10
2018-10-18T22:37:20.269Z,97.90
2018-10-18T22:39:53.658Z,98.00
2018-10-18T22:42:27.076Z,98.40
2018-10-18T22:45:00.470Z,98.30
2018-10-18T22:47:33.927Z,98.90
2018-10-18T22:50:07.396Z,98.60
2018-10-18T22:52:40.815Z,98.60
2018-10-18T22:55:14.216Z,98.70
2018-10-18T22:57:47.634Z,98.40
2018-10-18T23:00:21.046Z,98.70
2018-10-18T23:02:54.509Z,98.60
2018-10-18T23:05:27.888Z,98.90
2018-10-18T23:08:01.316Z,97.90
2018-10-18T23:10:34.731Z,98.00
2018-10-18T23:13:08.443Z,97.90
2018-10-18T23:15:41.843Z,97.80
2018-10-18T23:18:15.259Z,97.70
2018-10-18T23:20:48.667Z,97.80
2018-10-18T23:23:22.090Z,97.50
2018-10-18T23:25:55.502Z,97.50
2018-10-18T23:28:28.935Z,97.20
2018-10-18T23:31:02.342Z,97.30
2018-10-18T23:33:35.783Z,97.10
2018-10-18T23:36:09.199Z,97.00
2018-10-18T23:38:42.652Z,97.00
2018-10-18T23:41:16.099Z,96.80
2018-10-18T23:43:49.488Z,96.30
2018-10-18T23:46:22.920Z,97.40
2018-10-18T23:48:56.371Z,97.60
2018-10-18T23:51:29.779Z,97.00
2018-10-18T23:54:03.230Z,96.70
2018-10-18T23:56:36.648Z,96.80
2018-10-18T23:59:10.145Z,96.90
